Time;durP1;ratioP1;P1;durP2;ratioP2;P2;SDS_P1;SDS_P2;PMS_P1;PMS_P2;Temp;Humidity;BMP_temperature;BMP_pressure;BME280_temperature;BME280_humidity;BME280_pressure;Samples;Min_cycle;Max_cycle;Signal;HPM_P1;HPM_P2
2022/04/07 00:02:19;;;;;;;0.80;0.50;;;24.90;34.80;;;;;;5012987;28;20412;-64
2022/04/07 00:04:45;;;;;;;0.50;0.30;;;24.90;34.60;;;;;;5013442;28;20401;-64
2022/04/07 00:07:10;;;;;;;0.90;0.40;;;24.90;34.60;;;;;;5013513;28;20396;-63
2022/04/07 00:09:36;;;;;;;0.55;0.40;;;24.80;34.70;;;;;;5012150;28;20480;-63
2022/04/07 00:12:03;;;;;;;1.17;0.47;;;24.80;34.70;;;;;;5013359;28;20887;-63
2022/04/07 00:14:28;;;;;;;0.77;0.50;;;24.80;34.60;;;;;;5012815;28;20389;-64
2022/04/07 00:16:54;;;;;;;0.60;0.43;;;24.80;34.50;;;;;;5013292;28;20869;-64
2022/04/07 00:19:22;;;;;;;0.70;0.38;;;24.90;34.30;;;;;;5013337;28;20385;-63
2022/04/07 00:21:48;;;;;;;0.60;0.40;;;24.90;34.20;;;;;;5013183;28;20393;-63
2022/04/07 00:24:14;;;;;;;0.60;0.40;;;24.90;34.30;;;;;;5012867;28;20420;-63
2022/04/07 00:26:39;;;;;;;0.60;0.40;;;24.80;34.50;;;;;;5012927;28;20789;-64
2022/04/07 00:29:05;;;;;;;0.77;0.50;;;24.80;34.50;;;;;;5013168;28;20415;-64
2022/04/07 00:31:39;;;;;;;1.20;0.40;;;24.70;34.50;;;;;;5012947;28;20745;-63
2022/04/07 00:34:08;;;;;;;0.60;0.40;;;24.70;34.70;;;;;;5012990;28;20385;-63
2022/04/07 00:36:34;;;;;;;0.50;0.20;;;24.70;34.60;;;;;;5012509;28;20741;-63
2022/04/07 00:39:00;;;;;;;0.57;0.30;;;24.70;34.60;;;;;;5012994;28;20396;-63
2022/04/07 00:41:26;;;;;;;0.80;0.38;;;24.70;34.60;;;;;;5012853;28;20419;-63
2022/04/07 00:43:52;;;;;;;0.82;0.40;;;24.80;34.40;;;;;;5012733;28;20413;-63
2022/04/07 00:46:18;;;;;;;0.60;0.40;;;24.70;34.40;;;;;;5027767;28;20444;-64
2022/04/07 00:48:44;;;;;;;0.60;0.30;;;24.80;34.40;;;;;;5012487;28;20424;-64
2022/04/07 00:51:09;;;;;;;0.50;0.30;;;24.70;34.30;;;;;;5012713;28;20421;-63
2022/04/07 00:53:35;;;;;;;0.70;0.30;;;24.70;34.30;;;;;;5012580;28;20400;-64
2022/04/07 00:56:02;;;;;;;0.38;0.30;;;24.70;34.40;;;;;;5011948;28;20381;-63
2022/04/07 00:58:29;;;;;;;0.88;0.40;;;24.70;34.40;;;;;;5011793;28;20400;-63
2022/04/07 01:00:58;;;;;;;0.45;0.40;;;24.80;34.30;;;;;;5012426;28;20884;-64
2022/04/07 01:03:25;;;;;;;1.17;0.40;;;24.70;34.10;;;;;;5012735;28;20425;-64
2022/04/07 01:05:51;;;;;;;0.60;0.40;;;24.80;34.30;;;;;;5012287;28;20392;-64
2022/04/07 01:08:17;;;;;;;0.32;0.30;;;24.80;34.20;;;;;;5012021;28;20897;-64
2022/04/07 01:10:45;;;;;;;0.50;0.40;;;24.80;34.10;;;;;;5012294;28;20465;-64
2022/04/07 01:13:12;;;;;;;0.40;0.40;;;24.80;34.10;;;;;;5012522;28;20400;-63
2022/04/07 01:15:38;;;;;;;0.50;0.30;;;24.80;33.70;;;;;;5012318;28;20499;-64
2022/04/07 01:18:04;;;;;;;1.23;0.47;;;24.70;34.20;;;;;;5012403;28;20393;-63
2022/04/07 01:20:30;;;;;;;0.50;0.30;;;24.80;34.10;;;;;;5011690;28;20734;-63
2022/04/07 01:22:57;;;;;;;0.50;0.30;;;24.70;34.10;;;;;;5012135;28;20876;-64
2022/04/07 01:25:25;;;;;;;0.45;0.30;;;24.70;34.10;;;;;;5012104;28;20884;-63
2022/04/07 01:27:51;;;;;;;0.90;0.30;;;24.70;34.20;;;;;;5012091;28;20853;-63
2022/04/07 01:30:17;;;;;;;0.57;0.40;;;24.60;34.30;;;;;;5011760;28;20392;-64
2022/04/07 01:32:48;;;;;;;0.50;0.30;;;24.70;34.60;;;;;;5011869;28;20881;-64
2022/04/07 01:35:14;;;;;;;0.40;0.30;;;24.60;34.30;;;;;;5027042;28;20443;-64
2022/04/07 01:37:43;;;;;;;0.60;0.40;;;24.60;34.40;;;;;;5011968;28;20893;-63
2022/04/07 01:40:13;;;;;;;0.47;0.30;;;24.70;34.40;;;;;;5011981;28;20389;-63
2022/04/07 01:42:38;;;;;;;0.47;0.40;;;24.80;34.30;;;;;;5011251;28;20765;-64
2022/04/07 01:45:06;;;;;;;0.63;0.40;;;24.80;34.10;;;;;;5011950;28;20393;-63
2022/04/07 01:47:35;;;;;;;0.55;0.40;;;24.70;34.10;;;;;;5011630;28;20467;-63
2022/04/07 01:50:08;;;;;;;0.70;0.30;;;24.70;34.30;;;;;;5011841;28;20397;-64
2022/04/07 01:52:36;;;;;;;1.00;0.40;;;24.70;34.30;;;;;;5011401;28;20395;-63
2022/04/07 01:55:03;;;;;;;0.60;0.40;;;24.70;34.20;;;;;;5011410;28;20404;-63
2022/04/07 01:57:30;;;;;;;0.68;0.40;;;24.70;34.20;;;;;;5011679;28;20471;-63
2022/04/07 01:59:58;;;;;;;0.50;0.30;;;24.70;34.00;;;;;;5011794;28;20451;-63
2022/04/07 02:02:24;;;;;;;0.80;0.38;;;24.70;34.10;;;;;;5011281;28;20436;-64
2022/04/07 02:04:57;;;;;;;0.52;0.40;;;24.70;34.20;;;;;;5011312;28;20424;-64
2022/04/07 02:07:28;;;;;;;0.52;0.35;;;24.70;34.20;;;;;;5011625;28;20385;-64
2022/04/07 02:09:53;;;;;;;0.63;0.40;;;24.60;34.30;;;;;;5011429;28;20392;-64
2022/04/07 02:12:20;;;;;;;0.35;0.30;;;24.60;34.40;;;;;;5010781;28;20443;-64
2022/04/07 02:14:47;;;;;;;0.60;0.40;;;24.60;34.30;;;;;;5011215;28;20400;-63
2022/04/07 02:17:17;;;;;;;0.60;0.40;;;24.60;34.30;;;;;;5027023;28;20397;-64
2022/04/07 02:19:44;;;;;;;0.70;0.40;;;24.60;34.40;;;;;;5015538;28;20454;-63
2022/04/07 02:22:10;;;;;;;0.60;0.50;;;24.60;34.30;;;;;;5015576;28;20469;-63
2022/04/07 02:24:38;;;;;;;0.50;0.45;;;24.60;34.40;;;;;;5014803;28;20442;-64
2022/04/07 02:27:03;;;;;;;0.45;0.30;;;24.60;34.50;;;;;;5015390;28;20404;-63
2022/04/07 02:29:29;;;;;;;0.40;0.40;;;24.60;34.30;;;;;;5015299;28;20389;-64
2022/04/07 02:31:54;;;;;;;0.57;0.40;;;24.60;34.20;;;;;;5015304;28;20396;-64
2022/04/07 02:34:20;;;;;;;0.80;0.43;;;24.50;34.30;;;;;;5015090;28;20410;-64
2022/04/07 02:36:46;;;;;;;1.10;0.50;;;24.50;34.60;;;;;;5014884;28;20404;-64
2022/04/07 02:39:11;;;;;;;0.60;0.40;;;24.50;34.40;;;;;;5015172;28;20865;-64
2022/04/07 02:41:37;;;;;;;0.40;0.40;;;24.50;34.40;;;;;;5015002;28;20420;-63
2022/04/07 02:44:02;;;;;;;0.60;0.38;;;24.50;34.40;;;;;;5015019;28;20423;-64
2022/04/07 02:46:28;;;;;;;1.30;0.70;;;24.40;34.40;;;;;;5014666;28;20384;-64
2022/04/07 02:48:54;;;;;;;0.40;0.30;;;24.50;34.50;;;;;;5015144;28;20859;-63
2022/04/07 02:51:19;;;;;;;0.57;0.40;;;24.40;34.40;;;;;;5014882;28;20389;-63
2022/04/07 02:53:47;;;;;;;0.95;0.40;;;24.40;35.10;;;;;;5014152;28;20425;-64
2022/04/07 02:56:12;;;;;;;0.60;0.40;;;24.40;34.60;;;;;;5014637;28;20784;-63
2022/04/07 02:58:38;;;;;;;0.43;0.30;;;24.40;34.60;;;;;;5014312;28;20918;-63
2022/04/07 03:01:04;;;;;;;0.70;0.50;;;24.40;34.60;;;;;;5013438;28;20456;-63
2022/04/07 03:03:29;;;;;;;0.80;0.40;;;24.40;34.60;;;;;;5014632;28;20421;-64
2022/04/07 03:05:55;;;;;;;1.52;0.30;;;24.30;34.80;;;;;;5014612;28;20392;-63
2022/04/07 03:08:21;;;;;;;1.40;0.40;;;24.30;35.40;;;;;;5013411;28;20396;-64
2022/04/07 03:10:46;;;;;;;1.30;0.45;;;24.30;36.00;;;;;;5014089;28;20389;-63
2022/04/07 03:13:12;;;;;;;1.20;0.40;;;24.30;36.80;;;;;;5014679;28;20409;-63
2022/04/07 03:15:38;;;;;;;1.95;0.70;;;24.40;37.00;;;;;;5014418;28;20384;-65
2022/04/07 03:18:03;;;;;;;1.70;0.50;;;24.40;36.10;;;;;;5014450;28;20811;-64
2022/04/07 03:20:29;;;;;;;2.50;0.55;;;24.50;37.00;;;;;;5013845;28;20391;-64
2022/04/07 03:22:55;;;;;;;3.75;0.77;;;24.50;37.10;;;;;;5013875;28;20968;-64
2022/04/07 03:25:20;;;;;;;2.10;0.50;;;24.50;39.00;;;;;;5030014;28;20563;-65
2022/04/07 03:27:46;;;;;;;1.83;0.50;;;24.50;38.70;;;;;;5013957;28;20479;-65
2022/04/07 03:30:12;;;;;;;1.77;0.50;;;24.50;40.60;;;;;;5012280;28;20397;-65
2022/04/07 03:32:37;;;;;;;2.03;0.50;;;24.50;39.80;;;;;;5013458;28;20400;-65
2022/04/07 03:35:04;;;;;;;2.40;0.45;;;24.40;39.30;;;;;;5014722;28;20892;-64
2022/04/07 03:37:30;;;;;;;1.60;0.50;;;24.40;39.80;;;;;;5014768;28;20464;-65
2022/04/07 03:39:55;;;;;;;1.10;0.55;;;24.50;38.50;;;;;;5014254;28;20484;-64
2022/04/07 03:42:21;;;;;;;2.13;0.50;;;24.50;39.00;;;;;;5028995;28;20385;-66
2022/04/07 03:44:47;;;;;;;1.90;0.50;;;24.50;37.70;;;;;;5012308;28;20423;-65
2022/04/07 03:47:12;;;;;;;1.10;0.60;;;24.60;37.80;;;;;;5014170;28;20401;-64
2022/04/07 03:49:39;;;;;;;1.00;0.45;;;24.50;37.90;;;;;;5012710;28;20404;-64
2022/04/07 03:52:05;;;;;;;2.45;0.50;;;24.50;37.60;;;;;;5013876;28;20389;-65
2022/04/07 03:54:30;;;;;;;1.65;0.43;;;24.50;38.20;;;;;;5013382;28;20393;-65
2022/04/07 03:56:56;;;;;;;0.85;0.40;;;24.50;37.10;;;;;;5013752;28;20427;-65
2022/04/07 03:59:22;;;;;;;1.40;0.40;;;24.50;37.00;;;;;;5013654;28;20483;-64
2022/04/07 04:01:48;;;;;;;0.77;0.47;;;24.50;36.50;;;;;;5013549;28;20404;-65
2022/04/07 04:04:13;;;;;;;2.17;0.40;;;24.50;36.40;;;;;;5013598;28;20432;-64
2022/04/07 04:06:40;;;;;;;1.98;0.60;;;24.50;37.20;;;;;;5012940;28;20444;-65
2022/04/07 04:09:06;;;;;;;1.17;0.47;;;24.50;37.10;;;;;;5013830;28;21023;-64
2022/04/07 04:11:32;;;;;;;0.80;0.40;;;24.50;37.10;;;;;;5013391;28;20388;-64
2022/04/07 04:13:57;;;;;;;1.20;0.47;;;24.50;37.80;;;;;;5013447;28;20396;-65
2022/04/07 04:16:23;;;;;;;1.00;0.40;;;24.50;36.90;;;;;;5013391;28;20424;-65
2022/04/07 04:18:48;;;;;;;1.13;0.40;;;24.50;37.40;;;;;;5012777;28;20397;-65
2022/04/07 04:21:14;;;;;;;0.97;0.40;;;24.50;37.10;;;;;;5028623;28;20488;-64
2022/04/07 04:23:40;;;;;;;1.05;0.60;;;24.50;37.20;;;;;;5013107;28;20432;-65
2022/04/07 04:26:06;;;;;;;0.50;0.40;;;24.40;37.00;;;;;;5012559;28;20468;-64
2022/04/07 04:28:32;;;;;;;0.50;0.40;;;24.50;37.40;;;;;;5012776;28;20874;-65
2022/04/07 04:30:58;;;;;;;1.20;0.40;;;24.40;36.60;;;;;;5007077;28;20401;-65
2022/04/07 04:33:24;;;;;;;1.00;0.50;;;24.40;36.50;;;;;;5009628;28;20407;-64
2022/04/07 04:35:50;;;;;;;1.90;0.50;;;24.50;36.70;;;;;;5006927;28;20755;-63
2022/04/07 04:38:16;;;;;;;0.50;0.32;;;24.50;36.60;;;;;;5010597;28;20397;-65
2022/04/07 04:40:42;;;;;;;1.23;0.53;;;24.40;36.50;;;;;;5008818;28;20408;-65
2022/04/07 04:43:07;;;;;;;1.00;0.60;;;24.50;36.80;;;;;;4997324;28;20410;-64
2022/04/07 04:45:33;;;;;;;1.58;0.47;;;24.40;36.20;;;;;;4993389;28;20413;-65
2022/04/07 04:48:00;;;;;;;1.40;0.70;;;24.40;36.70;;;;;;5008255;28;20407;-64
2022/04/07 04:50:27;;;;;;;0.73;0.40;;;24.40;36.30;;;;;;4993068;28;20434;-64
2022/04/07 04:52:52;;;;;;;1.17;0.40;;;24.40;36.10;;;;;;4992761;28;20406;-65
2022/04/07 04:55:19;;;;;;;0.90;0.50;;;24.50;36.40;;;;;;4991770;28;20737;-64
2022/04/07 04:57:44;;;;;;;0.80;0.60;;;24.50;36.30;;;;;;4992581;28;20394;-64
2022/04/07 05:00:11;;;;;;;0.50;0.47;;;24.50;36.30;;;;;;4992359;28;20397;-64
2022/04/07 05:02:39;;;;;;;1.40;0.50;;;24.50;36.40;;;;;;4991997;28;20414;-64
2022/04/07 05:05:06;;;;;;;2.70;0.50;;;24.50;36.40;;;;;;4992891;28;20882;-63
2022/04/07 05:07:32;;;;;;;2.07;0.53;;;24.50;36.60;;;;;;4992881;28;20470;-65
2022/04/07 05:09:58;;;;;;;3.20;0.60;;;24.50;36.40;;;;;;4992566;28;20489;-67
2022/04/07 05:12:23;;;;;;;3.80;0.77;;;24.40;36.60;;;;;;4992324;28;20391;-66
2022/04/07 05:14:49;;;;;;;1.67;0.60;;;24.40;36.60;;;;;;4992328;28;20397;-65
2022/04/07 05:17:18;;;;;;;3.47;0.60;;;24.40;37.60;;;;;;4992449;28;20418;-65
2022/04/07 05:19:44;;;;;;;5.23;0.43;;;24.40;37.90;;;;;;4993217;28;20487;-65
2022/04/07 05:22:10;;;;;;;3.75;0.70;;;24.50;38.30;;;;;;4994622;28;20441;-65
2022/04/07 05:24:36;;;;;;;2.42;0.40;;;24.60;38.60;;;;;;4992252;28;20480;-65
2022/04/07 05:27:02;;;;;;;2.80;0.60;;;24.60;38.70;;;;;;4992324;28;20453;-67
2022/04/07 05:29:27;;;;;;;2.95;0.47;;;24.60;38.50;;;;;;4975179;28;20417;-66
2022/04/07 05:31:53;;;;;;;4.37;0.60;;;24.70;38.40;;;;;;4992415;28;20394;-66
2022/04/07 05:34:18;;;;;;;1.63;0.53;;;24.70;38.40;;;;;;4992638;28;20395;-67
2022/04/07 05:36:44;;;;;;;1.80;0.40;;;24.70;38.50;;;;;;4991931;28;20401;-63
2022/04/07 05:39:10;;;;;;;1.70;0.50;;;24.70;38.40;;;;;;4992312;28;20481;-66
2022/04/07 05:41:36;;;;;;;2.75;0.50;;;24.70;39.00;;;;;;4992256;28;20448;-65
2022/04/07 05:44:01;;;;;;;1.90;0.50;;;24.70;39.20;;;;;;4992437;28;20446;-67
2022/04/07 05:46:27;;;;;;;0.95;0.43;;;24.70;39.30;;;;;;4997887;28;20491;-67
2022/04/07 05:48:52;;;;;;;2.30;0.80;;;24.80;39.30;;;;;;4999779;28;20835;-65
2022/04/07 05:51:18;;;;;;;2.80;0.60;;;24.70;39.40;;;;;;4998496;28;20422;-66
2022/04/07 05:53:44;;;;;;;3.20;0.90;;;24.70;39.10;;;;;;5002879;28;20403;-63
2022/04/07 05:56:09;;;;;;;3.40;0.90;;;24.80;38.10;;;;;;5009791;28;20799;-65
2022/04/07 05:58:35;;;;;;;2.85;0.93;;;24.70;38.20;;;;;;5000277;28;20469;-65
2022/04/07 06:01:01;;;;;;;3.20;0.73;;;24.70;38.50;;;;;;4999912;28;20402;-65
2022/04/07 06:03:27;;;;;;;2.50;0.73;;;24.70;38.40;;;;;;5001809;28;20415;-64
2022/04/07 06:05:55;;;;;;;3.15;0.82;;;24.60;37.40;;;;;;5007397;28;20459;-65
2022/04/07 06:08:21;;;;;;;3.20;0.75;;;24.60;36.80;;;;;;5013075;28;20868;-66
2022/04/07 06:10:48;;;;;;;2.20;0.90;;;24.70;36.70;;;;;;5010534;28;20443;-67
2022/04/07 06:13:14;;;;;;;1.90;0.90;;;24.60;36.70;;;;;;5011322;28;20389;-66
2022/04/07 06:15:40;;;;;;;2.30;0.80;;;24.60;36.90;;;;;;5011185;28;20385;-67
2022/04/07 06:18:06;;;;;;;2.70;0.90;;;24.60;37.60;;;;;;5011405;28;20944;-66
2022/04/07 06:20:32;;;;;;;3.50;1.10;;;24.60;37.00;;;;;;5011084;28;20531;-66
2022/04/07 06:23:00;;;;;;;4.90;0.90;;;24.60;36.70;;;;;;5010864;28;20440;-67
2022/04/07 06:25:26;;;;;;;2.88;0.90;;;24.60;36.80;;;;;;5011168;28;20460;-67
2022/04/07 06:27:52;;;;;;;1.63;0.80;;;24.60;36.90;;;;;;5011566;28;20392;-66
2022/04/07 06:30:19;;;;;;;2.93;1.00;;;24.60;36.90;;;;;;5014143;28;20407;-66
2022/04/07 06:32:46;;;;;;;2.10;0.90;;;24.60;36.80;;;;;;5011034;28;20380;-66
2022/04/07 06:35:13;;;;;;;2.70;0.80;;;24.60;36.60;;;;;;5011152;28;20912;-66
2022/04/07 06:37:53;;;;;;;1.65;0.80;;;24.60;36.60;;;;;;5011539;28;20427;-67
2022/04/07 06:40:20;;;;;;;2.38;0.90;;;24.60;36.80;;;;;;5027151;28;20399;-65
2022/04/07 06:42:51;;;;;;;1.30;1.00;;;24.60;36.50;;;;;;5010196;28;20531;-65
2022/04/07 06:45:17;;;;;;;1.87;0.93;;;24.60;36.40;;;;;;5011113;28;20464;-66
2022/04/07 06:47:43;;;;;;;2.95;0.95;;;24.60;36.10;;;;;;5012393;28;20401;-65
2022/04/07 06:50:11;;;;;;;1.75;0.95;;;24.60;36.10;;;;;;5013526;28;20393;-66
2022/04/07 06:52:38;;;;;;;2.08;1.00;;;24.60;36.00;;;;;;5010634;28;20435;-66
2022/04/07 06:55:05;;;;;;;1.88;0.80;;;24.60;36.00;;;;;;5010724;28;20471;-63
2022/04/07 06:57:30;;;;;;;2.17;0.98;;;24.60;36.00;;;;;;5010822;28;20393;-65
2022/04/07 06:59:56;;;;;;;1.58;0.80;;;24.60;35.90;;;;;;5010604;28;20451;-66
2022/04/07 07:02:22;;;;;;;1.70;0.80;;;24.60;35.80;;;;;;5011421;28;20499;-66
2022/04/07 07:04:47;;;;;;;1.88;0.80;;;24.60;35.80;;;;;;5011719;28;20440;-65
2022/04/07 07:07:13;;;;;;;1.67;0.90;;;24.60;35.80;;;;;;5014627;28;20397;-66
2022/04/07 07:09:39;;;;;;;1.58;0.70;;;24.60;35.70;;;;;;5014431;28;20392;-66
2022/04/07 07:12:05;;;;;;;1.73;0.80;;;24.60;36.00;;;;;;5014441;28;20427;-66
2022/04/07 07:14:31;;;;;;;1.95;0.80;;;24.60;35.90;;;;;;5017206;28;20439;-66
2022/04/07 07:16:56;;;;;;;2.30;0.97;;;24.60;36.00;;;;;;5016316;28;20526;-66
2022/04/07 07:19:28;;;;;;;1.58;0.82;;;24.60;35.80;;;;;;5014573;28;20872;-67
2022/04/07 07:21:55;;;;;;;1.50;0.70;;;24.70;35.90;;;;;;5014315;28;20402;-66
2022/04/07 07:24:20;;;;;;;2.25;0.63;;;24.60;35.80;;;;;;5013548;28;20462;-66
2022/04/07 07:26:46;;;;;;;1.40;0.70;;;24.60;36.10;;;;;;5014271;28;20397;-64
2022/04/07 07:29:12;;;;;;;1.70;0.80;;;24.70;35.80;;;;;;5014177;28;21070;-66
2022/04/07 07:31:37;;;;;;;4.50;0.80;;;24.70;35.70;;;;;;5012828;28;20389;-65
2022/04/07 07:34:03;;;;;;;4.87;0.80;;;24.60;35.80;;;;;;5030591;28;20389;-63
2022/04/07 07:36:30;;;;;;;3.10;0.70;;;24.60;35.70;;;;;;5028508;28;20393;-64
2022/04/07 07:38:56;;;;;;;4.20;1.00;;;24.50;35.90;;;;;;5011747;28;21104;-66
2022/04/07 07:41:22;;;;;;;3.15;0.90;;;24.40;36.10;;;;;;5015990;28;20451;-66
2022/04/07 07:43:47;;;;;;;2.85;0.95;;;24.40;36.10;;;;;;5013382;28;20412;-64
2022/04/07 07:46:13;;;;;;;3.40;1.60;;;24.40;36.10;;;;;;5014196;28;20384;-65
2022/04/07 07:48:39;;;;;;;2.42;0.80;;;24.50;36.10;;;;;;5013474;28;20396;-63
2022/04/07 07:51:05;;;;;;;2.25;0.70;;;24.50;36.30;;;;;;5013371;28;20421;-66
2022/04/07 07:53:31;;;;;;;5.68;0.70;;;24.50;36.20;;;;;;5028894;28;20440;-65
2022/04/07 07:55:56;;;;;;;3.28;0.70;;;24.50;35.90;;;;;;5013638;28;20795;-68
2022/04/07 07:58:23;;;;;;;1.80;0.70;;;24.50;35.90;;;;;;5028646;28;20503;-66
2022/04/07 08:00:49;;;;;;;3.55;0.80;;;24.60;35.90;;;;;;5013055;28;20865;-68
2022/04/07 08:03:15;;;;;;;2.90;0.70;;;24.60;35.90;;;;;;5012827;28;20519;-67
2022/04/07 08:05:41;;;;;;;1.65;0.70;;;24.50;36.00;;;;;;5013218;28;20393;-65
2022/04/07 08:08:07;;;;;;;2.67;0.60;;;24.50;36.50;;;;;;5007793;28;20390;-67
2022/04/07 08:10:33;;;;;;;2.67;0.70;;;24.60;36.60;;;;;;4993515;28;20428;-69
2022/04/07 08:12:59;;;;;;;2.37;0.70;;;24.60;36.30;;;;;;4993767;28;20429;-69
2022/04/07 08:15:27;;;;;;;1.48;0.60;;;24.60;36.20;;;;;;4996048;28;20761;-68
2022/04/07 08:17:52;;;;;;;2.40;0.55;;;24.60;36.30;;;;;;5003013;28;20887;-68
2022/04/07 08:20:18;;;;;;;2.73;0.60;;;24.70;36.30;;;;;;5001036;28;20402;-67
2022/04/07 08:22:44;;;;;;;2.05;0.57;;;24.70;36.50;;;;;;5005022;28;20413;-67
2022/04/07 08:25:10;;;;;;;1.47;0.60;;;24.70;36.90;;;;;;5002624;28;20393;-67
2022/04/07 08:27:36;;;;;;;1.80;0.70;;;24.70;36.80;;;;;;5003455;28;21006;-69
2022/04/07 08:30:02;;;;;;;1.55;0.65;;;24.70;36.70;;;;;;5004453;28;20434;-68
2022/04/07 08:32:31;;;;;;;1.67;0.90;;;24.80;36.70;;;;;;5012794;28;20761;-67
2022/04/07 08:34:58;;;;;;;2.05;0.50;;;24.80;37.00;;;;;;5012095;28;20488;-67
2022/04/07 08:37:24;;;;;;;2.10;0.60;;;24.80;37.00;;;;;;5012801;28;20425;-66
2022/04/07 08:39:51;;;;;;;1.90;0.70;;;24.80;37.20;;;;;;5012704;28;20397;-68
2022/04/07 08:42:20;;;;;;;2.50;0.80;;;24.90;38.10;;;;;;5012692;28;20393;-68
2022/04/07 08:44:47;;;;;;;1.52;0.60;;;24.90;38.00;;;;;;5012373;28;20448;-69
2022/04/07 08:47:14;;;;;;;1.77;0.57;;;25.00;38.00;;;;;;5012470;28;20389;-68
2022/04/07 08:49:42;;;;;;;3.33;0.70;;;25.00;38.10;;;;;;5012549;28;21038;-68
2022/04/07 08:52:08;;;;;;;3.63;0.60;;;25.00;38.00;;;;;;5012889;28;20393;-70
2022/04/07 08:54:34;;;;;;;2.92;0.80;;;25.00;38.60;;;;;;5012681;28;20400;-67
2022/04/07 08:57:01;;;;;;;1.73;0.77;;;25.00;38.80;;;;;;5012108;28;20404;-68
2022/04/07 08:59:26;;;;;;;1.60;0.60;;;25.00;38.80;;;;;;5011379;28;20413;-66
2022/04/07 09:02:03;;;;;;;4.57;0.70;;;25.10;38.70;;;;;;5011858;28;20556;-66
2022/04/07 09:04:37;;;;;;;1.00;0.50;;;25.10;38.30;;;;;;5012004;28;20420;-66
2022/04/07 09:07:03;;;;;;;1.60;0.50;;;25.10;37.80;;;;;;4993875;28;20519;-68
2022/04/07 09:09:31;;;;;;;1.97;0.60;;;25.10;37.90;;;;;;4992417;28;20401;-66
2022/04/07 09:11:57;;;;;;;2.97;0.60;;;25.20;38.00;;;;;;4992806;28;20472;-67
2022/04/07 09:14:23;;;;;;;2.60;0.63;;;25.20;37.80;;;;;;4992805;28;20402;-66
2022/04/07 09:16:56;;;;;;;1.63;0.40;;;25.20;37.50;;;;;;4992411;28;20391;-66
2022/04/07 09:19:23;;;;;;;1.30;0.40;;;25.20;37.40;;;;;;4992280;28;20417;-67
2022/04/07 09:22:10;;;;;;;1.63;0.55;;;25.20;37.00;;;;;;5001326;28;20390;-66
2022/04/07 09:24:41;;;;;;;3.43;0.50;;;25.20;37.60;;;;;;5000371;28;20424;-66
2022/04/07 09:27:10;;;;;;;3.20;0.70;;;25.20;36.90;;;;;;4996658;28;20430;-66
2022/04/07 09:29:43;;;;;;;3.90;0.73;;;25.20;37.30;;;;;;4992241;28;20400;-66
2022/04/07 09:32:19;;;;;;;2.38;0.70;;;25.20;37.30;;;;;;4991221;28;20758;-66
2022/04/07 09:34:50;;;;;;;3.35;0.70;;;25.30;37.90;;;;;;4992073;28;20394;-64
2022/04/07 09:37:20;;;;;;;3.38;0.60;;;25.30;37.50;;;;;;4991810;28;20394;-67
2022/04/07 09:39:46;;;;;;;3.05;0.80;;;25.30;37.30;;;;;;4992423;28;20469;-66
2022/04/07 09:42:25;;;;;;;3.07;0.53;;;25.30;37.20;;;;;;4990951;28;20891;-66
2022/04/07 09:44:57;;;;;;;1.70;0.50;;;25.30;37.00;;;;;;4992028;28;20423;-66
2022/04/07 09:47:24;;;;;;;2.00;0.60;;;25.30;37.00;;;;;;4991713;28;20397;-67
2022/04/07 09:49:49;;;;;;;1.83;0.70;;;25.30;36.90;;;;;;4991704;28;20399;-64
2022/04/07 09:52:21;;;;;;;2.55;0.60;;;25.20;36.80;;;;;;4991493;28;20386;-67
2022/04/07 09:54:51;;;;;;;1.48;0.60;;;25.20;36.70;;;;;;4991665;28;20402;-67
2022/04/07 09:57:21;;;;;;;1.27;0.45;;;25.40;38.60;;;;;;4991784;28;20390;-67
2022/04/07 09:59:48;;;;;;;2.25;0.60;;;25.80;37.10;;;;;;4991855;28;20394;-67
2022/04/07 10:02:16;;;;;;;3.03;0.68;;;25.70;36.00;;;;;;4991546;28;20417;-67
2022/04/07 10:04:42;;;;;;;2.10;0.50;;;25.50;35.90;;;;;;4991369;28;20426;-67
2022/04/07 10:07:11;;;;;;;2.90;0.60;;;25.50;35.50;;;;;;4990846;28;20382;-67
2022/04/07 10:09:40;;;;;;;1.85;0.50;;;25.50;36.30;;;;;;4991530;28;20433;-69
2022/04/07 10:12:07;;;;;;;2.33;0.60;;;25.50;36.20;;;;;;4991790;28;20545;-65
2022/04/07 10:14:34;;;;;;;3.20;0.52;;;25.50;36.00;;;;;;4991616;28;20394;-67
2022/04/07 10:17:00;;;;;;;1.75;0.50;;;25.50;36.20;;;;;;4991118;28;20393;-67
2022/04/07 10:19:50;;;;;;;1.65;0.55;;;25.50;36.10;;;;;;4991455;28;20790;-68
2022/04/07 10:22:39;;;;;;;4.80;0.50;;;25.50;35.10;;;;;;4991340;28;20851;-67
2022/04/07 10:25:06;;;;;;;1.83;0.50;;;25.50;35.60;;;;;;4983163;28;20413;-67
2022/04/07 10:27:54;;;;;;;2.75;0.40;;;25.40;34.50;;;;;;4991229;28;20476;-63
2022/04/07 10:30:21;;;;;;;2.80;0.70;;;25.30;34.10;;;;;;4991376;28;20458;-63
2022/04/07 10:32:53;;;;;;;1.77;0.47;;;25.40;35.30;;;;;;4991249;28;20790;-66
2022/04/07 10:35:32;;;;;;;1.50;0.60;;;25.50;35.30;;;;;;4990913;28;20895;-64
2022/04/07 10:38:00;;;;;;;1.90;0.40;;;25.60;35.10;;;;;;5006227;28;20513;-64
2022/04/07 10:40:39;;;;;;;1.30;0.50;;;25.60;35.00;;;;;;4994746;28;20863;-64
2022/04/07 10:43:15;;;;;;;1.88;0.50;;;25.60;35.00;;;;;;4994430;28;20445;-63
2022/04/07 10:45:42;;;;;;;2.50;0.50;;;25.60;35.00;;;;;;4994441;28;20886;-64
2022/04/07 10:48:29;;;;;;;0.95;0.50;;;25.60;35.40;;;;;;4994950;28;20391;-63
2022/04/07 10:51:05;;;;;;;2.30;0.80;;;25.60;35.40;;;;;;4994638;28;20399;-63
2022/04/07 10:53:51;;;;;;;1.95;0.70;;;25.60;35.10;;;;;;4994801;28;20379;-63
2022/04/07 10:56:25;;;;;;;2.30;0.73;;;25.70;35.30;;;;;;4994882;28;20426;-63
2022/04/07 10:58:55;;;;;;;2.15;0.90;;;25.70;35.00;;;;;;4994712;28;20457;-64
2022/04/07 11:01:32;;;;;;;3.55;1.00;;;25.80;35.00;;;;;;4994616;28;20414;-65
2022/04/07 11:04:16;;;;;;;2.33;0.75;;;25.80;35.10;;;;;;5010226;28;20477;-64
2022/04/07 11:07:13;;;;;;;2.08;0.80;;;25.80;35.30;;;;;;4994846;28;20410;-64
2022/04/07 11:09:54;;;;;;;3.20;0.70;;;25.80;35.20;;;;;;4994451;28;20382;-64
2022/04/07 11:12:31;;;;;;;1.65;0.70;;;25.80;35.30;;;;;;4994830;28;20386;-66
2022/04/07 11:15:03;;;;;;;1.92;0.60;;;25.90;35.30;;;;;;4994757;28;20394;-63
2022/04/07 11:17:47;;;;;;;1.45;0.50;;;25.80;35.10;;;;;;4994704;28;20456;-67
2022/04/07 11:20:19;;;;;;;1.40;0.60;;;25.90;35.30;;;;;;4994810;28;20387;-66
2022/04/07 11:23:05;;;;;;;1.45;0.60;;;25.90;35.30;;;;;;4994491;28;20418;-64
2022/04/07 11:25:36;;;;;;;1.83;0.65;;;25.90;35.20;;;;;;4994520;28;20391;-64
2022/04/07 11:28:10;;;;;;;1.48;0.60;;;25.90;35.30;;;;;;4994904;28;20445;-65
2022/04/07 11:30:48;;;;;;;1.00;0.50;;;26.00;35.40;;;;;;4994229;28;20445;-68
2022/04/07 11:33:38;;;;;;;0.75;0.40;;;26.00;35.30;;;;;;4994225;28;20391;-65
2022/04/07 11:36:04;;;;;;;0.52;0.40;;;26.00;35.30;;;;;;5003007;28;20400;-64
2022/04/07 11:38:33;;;;;;;1.40;0.40;;;26.00;35.20;;;;;;5001855;28;20747;-64
2022/04/07 11:41:07;;;;;;;0.90;0.40;;;26.00;35.10;;;;;;5000427;28;20398;-66
2022/04/07 11:43:34;;;;;;;0.90;0.47;;;26.00;35.30;;;;;;5002368;28;20422;-64
2022/04/07 11:46:04;;;;;;;0.88;0.57;;;26.00;35.10;;;;;;5001697;28;20391;-65
2022/04/07 11:48:35;;;;;;;1.45;0.40;;;26.00;35.20;;;;;;5000594;28;20438;-64
2022/04/07 11:51:08;;;;;;;1.42;0.40;;;26.00;35.10;;;;;;4998286;28;20397;-64
2022/04/07 11:53:33;;;;;;;0.80;0.40;;;26.10;35.20;;;;;;5006103;28;20433;-63
2022/04/07 11:56:17;;;;;;;0.67;0.40;;;26.10;35.10;;;;;;5000961;28;20862;-63
2022/04/07 11:58:44;;;;;;;1.25;0.60;;;26.00;34.90;;;;;;4992818;28;20409;-63
2022/04/07 12:01:13;;;;;;;1.40;0.50;;;26.10;35.00;;;;;;4993017;28;20420;-63
2022/04/07 12:03:38;;;;;;;0.95;0.45;;;26.10;35.00;;;;;;4993069;28;20426;-63
2022/04/07 12:06:04;;;;;;;1.00;0.40;;;26.20;35.00;;;;;;4993863;28;20945;-64
2022/04/07 12:08:31;;;;;;;0.60;0.40;;;26.20;34.80;;;;;;5013062;28;20401;-64
2022/04/07 12:10:58;;;;;;;0.60;0.40;;;26.20;34.90;;;;;;5001102;28;20427;-63
2022/04/07 12:13:24;;;;;;;1.38;0.60;;;26.10;34.70;;;;;;5002707;28;20428;-64
2022/04/07 12:15:49;;;;;;;1.00;0.70;;;26.20;35.00;;;;;;5028515;28;20432;-63
2022/04/07 12:18:27;;;;;;;1.30;0.60;;;26.20;34.70;;;;;;5013186;28;20511;-64
2022/04/07 12:21:00;;;;;;;1.00;0.43;;;26.20;34.70;;;;;;5013255;28;20415;-64
2022/04/07 12:23:27;;;;;;;0.60;0.32;;;26.20;34.90;;;;;;5012699;28;20888;-65
2022/04/07 12:26:02;;;;;;;0.70;0.40;;;26.20;34.80;;;;;;5007581;28;20405;-65
2022/04/07 12:28:38;;;;;;;0.55;0.40;;;26.20;34.60;;;;;;5005419;28;20876;-63
2022/04/07 12:31:10;;;;;;;0.95;0.40;;;26.20;34.60;;;;;;5017530;28;20410;-63
2022/04/07 12:33:44;;;;;;;0.70;0.40;;;26.20;34.60;;;;;;5001996;28;20385;-64
2022/04/07 12:36:13;;;;;;;0.88;0.40;;;26.20;34.50;;;;;;5001906;28;20402;-67
2022/04/07 12:38:40;;;;;;;0.80;0.32;;;26.20;34.50;;;;;;5005226;28;20777;-63
2022/04/07 12:41:15;;;;;;;0.55;0.38;;;26.20;34.50;;;;;;5013401;28;20404;-65
2022/04/07 12:43:51;;;;;;;1.00;0.47;;;26.20;34.50;;;;;;5012878;28;20925;-63
2022/04/07 12:46:19;;;;;;;0.65;0.40;;;26.20;34.50;;;;;;5012305;28;20385;-63
2022/04/07 12:49:01;;;;;;;0.50;0.40;;;26.20;34.40;;;;;;5012700;28;20428;-63
2022/04/07 12:51:27;;;;;;;0.80;0.40;;;26.20;34.30;;;;;;5011796;28;20408;-66
2022/04/07 12:54:22;;;;;;;0.70;0.40;;;26.20;34.30;;;;;;5012026;28;20384;-63